Ana Sayfa
METAR-TAF:

METAR-TAF

Havaalanları :

Maun, Botsvana

Enlem: 19-59S, Boylam: 023-25E, yükseklik: 945 m

Güncel hava durumu gözlemi

Rapor saat 16:00 UTC de 45 dakika önce yapıldı.
Rüzgar değişken yönden 2 kt
Sıcaklık 35°C
Nem 25%
Basınç 1011 hPa
Görüş mesafesi 10 km veya daha fazla
3000 ft yükseklikte parçalı bulutlu

METAR: FBMN 181600Z VRB02KT 9999 SCT030 35/12 Q1011

Saat: 18:45 (16:45 UTC)

Tahmin

Rapor saat 12:00 UTC de 4 saat ve 45 dakika önce yapıldı.
Ayın 18'si saat 15 UTC'den ayın 18'si saat 24 UTC'ye kadar geçerli Tahmin
Rüzgar doğudan 8 kt
Görüş mesafesi 10 km veya daha fazla
3000 ft yükseklikte parçalı bulutlu

TAF: FBMN 181200Z 1815/1824 09008KT 9999 SCT030

4.000'den fazla havaalanı için hava durumu gözlemleri ve tahminleri (METAR ve TAF raporları).

Kullanılabilir istasyonlar harita üzerinde sarı ve kırmızı noktalarla gösterilir.

İstasyonun adını görmek için fareyi noktanın üzerinde gezdirin.

Sonrasında hava gözlem ve tahminlerini görmek için tıklayın.

Haritayı değiştirmek için: yaklaştırmak için siyah artı işaretli yeşil düğmeye ve uzaklaştırmak için de eksi işaretli düğmeye hızla tıklayın; bitişik haritalar için yeşil okları kullanın.


METAR-TAF: